Wednesday, August 15, 2018, 11:58 PM EDT
Back to Local

KAOO, Altoona-blair County Airport

Location: Martinsburg, PA, United States Lat: 40.3
Local Time: 11:58 PM EDT ( 3:58 GMT) Lon: -78.317
Time Zone: US/Eastern Elev: 1502 ft

Show me the last for .
Show Decoded

2018-08-15 22:53 METAR KAOO 160253Z AUTO 00000KT 9SM CLR 22/18 A3011 RMK AO2 SLP186 T02220183
                 51012 =
2018-08-15 21:53 METAR KAOO 160153Z AUTO 20005KT 9SM CLR 23/19 A3011 RMK AO2 SLP186 T02280189 =
2018-08-15 20:53 METAR KAOO 160053Z AUTO 20006KT 9SM CLR 23/19 A3009 RMK AO2 SLP179 T02280189 =
2018-08-15 19:53 METAR KAOO 152353Z AUTO 25004KT 10SM CLR 25/19 A3008 RMK AO2 SLP175 T02500189
                 10289 20250 53003 =
2018-08-15 18:53 METAR KAOO 152253Z AUTO 27007KT 10SM CLR 26/18 A3007 RMK AO2 SLP171 T02610183 =
2018-08-15 17:53 METAR KAOO 152153Z AUTO 28007KT 10SM FEW065 27/19 A3007 RMK AO2 SLP173 T02720189
                 =
2018-08-15 16:53 METAR KAOO 152053Z AUTO 28008KT 10SM FEW050 28/18 A3007 RMK AO2 SLP170 T02830183
                 57003 =
2018-08-15 15:53 METAR KAOO 151953Z AUTO 26008KT 10SM BKN049 BKN060 29/18 A3007 RMK AO2 SLP171
                 T02890183 =
2018-08-15 14:53 METAR KAOO 151853Z AUTO 28008KT 10SM BKN045 BKN055 28/18 A3007 RMK AO2 SLP172
                 T02830183 =
2018-08-15 13:53 METAR KAOO 151753Z AUTO 27008KT 10SM FEW042 FEW055 28/19 A3008 RMK AO2 SLP173
                 T02830189 10283 20206 58002 =
2018-08-15 12:53 METAR KAOO 151653Z AUTO 29007KT 10SM FEW039 FEW047 28/19 A3009 RMK AO2 SLP177
                 T02780189 =
2018-08-15 11:53 METAR KAOO 151553Z AUTO 26008KT 10SM FEW033 27/20 A3009 RMK AO2 SLP178 T02670200
                 =
2018-08-15 10:53 METAR KAOO 151453Z AUTO 26004KT 10SM CLR 26/19 A3008 RMK AO2 SLP176 T02560194
                 51007 =
2018-08-15 09:53 METAR KAOO 151353Z AUTO 00000KT 9SM CLR 23/19 A3007 RMK AO2 SLP175 T02280194 =
2018-08-15 08:53 METAR KAOO 151253Z AUTO 20004KT 7SM CLR 21/19 A3007 RMK AO2 SLP173 T02110189 =
2018-08-15 07:53 METAR KAOO 151153Z AUTO 24005KT 6SM HZ CLR 21/18 A3006 RMK AO2 SLP170 70021
                 T02060178 10206 20172 53012 =
2018-08-15 06:53 METAR KAOO 151053Z AUTO 23007KT 6SM BR CLR 19/17 A3005 RMK AO2 SLP167 T01940172
                 =
2018-08-15 05:53 METAR KAOO 150953Z AUTO 21006KT 5SM BR CLR 18/16 A3003 RMK AO2 SLP161 T01780161
                 =
2018-08-15 04:53 METAR KAOO 150853Z AUTO 23004KT 3SM BR CLR 18/16 A3002 RMK AO2 SLP158 T01780161
                 55001 =
2018-08-15 03:53 METAR KAOO 150753Z AUTO 24006KT 7SM CLR 19/17 A3002 RMK AO2 SLP158 T01890172 =
2018-08-15 02:53 METAR KAOO 150653Z AUTO 23004KT 7SM CLR 19/17 A3002 RMK AO2 SLP157 T01890172 =
2018-08-15 01:53 METAR KAOO 150553Z AUTO 20005KT 6SM BR CLR 18/16 A3003 RMK AO2 SLP161 60021
                 T01780161 10222 20178 50001 =
2018-08-15 00:53 METAR KAOO 150453Z AUTO 00000KT 8SM CLR 18/17 A3003 RMK AO2 SLP160 T01830167
                 402330183 =

Support USWX by starting your Amazon purchase here.